createdAt,value
2023-04-23T00:00:51.039Z,4.50
2023-04-23T00:03:43.273Z,5.20
2023-04-23T00:06:30.478Z,4.77
2023-04-23T00:09:17.699Z,5.33
2023-04-23T00:12:04.887Z,4.67
2023-04-23T00:14:52.024Z,5.77
2023-04-23T00:17:38.706Z,9.03
2023-04-23T00:20:26.901Z,5.83
2023-04-23T00:23:13.647Z,5.77
2023-04-23T00:26:00.274Z,7.50
2023-04-23T00:28:46.800Z,6.90
2023-04-23T00:31:33.270Z,9.23
2023-04-23T00:34:19.735Z,7.30
2023-04-23T00:37:08.050Z,9.40
2023-04-23T00:39:54.788Z,10.03
2023-04-23T00:42:41.821Z,9.17
2023-04-23T00:45:28.779Z,11.00
2023-04-23T00:48:15.836Z,10.47
2023-04-23T00:51:06.178Z,12.10
2023-04-23T00:53:53.936Z,12.83
2023-04-23T00:56:40.809Z,11.63
2023-04-23T00:59:27.971Z,13.43
2023-04-23T01:02:15.044Z,13.77
2023-04-23T01:05:04.928Z,15.90
2023-04-23T01:07:51.687Z,17.13
2023-04-23T01:10:39.472Z,14.13
2023-04-23T01:13:29.701Z,14.23
2023-04-23T01:16:16.716Z,15.00
2023-04-23T01:19:03.456Z,14.83
2023-04-23T01:21:51.571Z,13.50
2023-04-23T01:24:41.411Z,14.90
2023-04-23T01:27:28.270Z,16.50
2023-04-23T01:30:15.383Z,16.73
2023-04-23T01:33:02.921Z,18.30
2023-04-23T01:35:51.247Z,18.70
2023-04-23T01:38:39.874Z,19.07
2023-04-23T01:41:28.397Z,18.30
2023-04-23T01:44:14.697Z,19.07
2023-04-23T01:47:01.207Z,19.80
2023-04-23T01:49:47.812Z,21.50
2023-04-23T01:52:34.132Z,20.13
2023-04-23T01:55:20.920Z,20.17
2023-04-23T01:58:09.304Z,20.00
2023-04-23T02:00:56.203Z,21.03
2023-04-23T02:03:42.973Z,21.87
2023-04-23T02:06:29.931Z,24.73
2023-04-23T02:09:16.381Z,22.73
2023-04-23T02:12:02.786Z,22.70
2023-04-23T02:14:51.057Z,22.03
2023-04-23T02:17:37.595Z,22.60
2023-04-23T02:20:24.218Z,27.57
2023-04-23T02:23:10.989Z,26.27
2023-04-23T02:25:57.468Z,29.27
2023-04-23T02:28:44.000Z,27.77
2023-04-23T02:31:31.818Z,26.40
2023-04-23T02:34:19.183Z,23.90
2023-04-23T02:37:05.989Z,24.33
2023-04-23T02:39:52.479Z,26.70
2023-04-23T02:42:39.050Z,29.57
2023-04-23T02:45:26.237Z,28.20
2023-04-23T02:48:14.141Z,27.10
2023-04-23T02:51:00.645Z,23.87
2023-04-23T02:53:47.017Z,30.27
2023-04-23T02:56:33.483Z,25.47
2023-04-23T02:59:20.369Z,27.77
2023-04-23T03:02:06.857Z,25.67
2023-04-23T03:04:55.294Z,27.77
2023-04-23T03:07:42.038Z,30.73
2023-04-23T03:10:28.502Z,28.57
2023-04-23T03:13:14.958Z,28.80
2023-04-23T03:16:01.489Z,27.53
2023-04-23T03:18:47.975Z,29.20
2023-04-23T03:21:35.875Z,32.13
2023-04-23T03:24:23.000Z,29.87
2023-04-23T03:27:09.732Z,30.60
2023-04-23T03:29:55.993Z,28.50
2023-04-23T03:32:42.551Z,25.70
2023-04-23T03:35:29.067Z,29.80
2023-04-23T03:38:16.777Z,25.90
2023-04-23T03:41:03.163Z,28.00
2023-04-23T03:43:49.682Z,30.07
2023-04-23T03:46:36.138Z,26.93
2023-04-23T03:49:23.036Z,29.57
2023-04-23T03:52:09.387Z,29.63
2023-04-23T03:54:57.408Z,29.07
2023-04-23T03:57:44.088Z,27.47
2023-04-23T04:00:30.597Z,29.77
2023-04-23T04:03:17.612Z,30.33
2023-04-23T04:06:04.730Z,27.00
2023-04-23T04:08:51.156Z,29.30
2023-04-23T04:11:38.932Z,30.60
2023-04-23T04:14:25.726Z,29.33
2023-04-23T04:17:12.521Z,30.33
2023-04-23T04:19:59.220Z,26.37
2023-04-23T04:22:46.780Z,27.60
2023-04-23T04:25:33.513Z,27.83
2023-04-23T04:28:21.219Z,29.90
2023-04-23T04:31:08.648Z,28.60
2023-04-23T04:33:56.291Z,29.10
2023-04-23T04:36:43.357Z,25.97
2023-04-23T04:39:29.929Z,28.00
2023-04-23T04:42:16.702Z,25.97
2023-04-23T04:45:06.108Z,28.27
2023-04-23T04:47:53.432Z,27.80
2023-04-23T04:50:40.199Z,26.33
2023-04-23T04:53:26.530Z,26.43
2023-04-23T04:56:12.954Z,25.73
2023-04-23T04:58:59.358Z,27.37
2023-04-23T05:01:47.783Z,32.60
2023-04-23T05:04:34.329Z,25.63
2023-04-23T05:07:20.647Z,28.93
2023-04-23T05:10:08.305Z,27.27
2023-04-23T05:12:54.983Z,27.03
2023-04-23T05:15:41.423Z,27.43
2023-04-23T05:18:29.663Z,30.10
2023-04-23T05:21:16.821Z,28.17
2023-04-23T05:24:03.570Z,29.00
2023-04-23T05:26:49.995Z,30.83
2023-04-23T05:29:36.493Z,27.93
2023-04-23T05:32:22.804Z,29.97
2023-04-23T05:35:11.069Z,30.93
2023-04-23T05:37:57.797Z,31.00
2023-04-23T05:40:44.538Z,29.27
2023-04-23T05:43:31.189Z,30.07
2023-04-23T05:46:17.744Z,29.20
2023-04-23T05:49:04.180Z,28.27
2023-04-23T05:51:52.361Z,31.33
2023-04-23T05:54:39.268Z,27.90
2023-04-23T05:57:26.510Z,28.33
2023-04-23T06:00:13.859Z,30.60
2023-04-23T06:03:00.753Z,33.47
2023-04-23T06:05:47.792Z,32.17
2023-04-23T06:08:35.934Z,30.43
2023-04-23T06:11:22.666Z,30.00
2023-04-23T06:14:09.049Z,31.80
2023-04-23T06:16:55.387Z,28.60
2023-04-23T06:19:42.882Z,31.23
2023-04-23T06:22:29.705Z,34.87
2023-04-23T06:25:17.427Z,30.93
2023-04-23T06:28:04.057Z,32.10
2023-04-23T06:30:50.545Z,35.33
2023-04-23T06:33:37.496Z,35.30
2023-04-23T06:36:23.754Z,32.43
2023-04-23T06:39:10.518Z,33.20
2023-04-23T06:41:59.160Z,29.70
2023-04-23T06:44:47.015Z,34.40
2023-04-23T06:47:33.454Z,35.40
2023-04-23T06:50:20.391Z,32.63
2023-04-23T06:53:07.032Z,33.40
2023-04-23T06:55:53.355Z,28.77
2023-04-23T06:58:41.275Z,34.57
2023-04-23T07:01:28.105Z,32.67
2023-04-23T07:04:14.982Z,36.87
2023-04-23T07:07:01.525Z,36.23
2023-04-23T07:09:48.037Z,36.20
2023-04-23T07:12:34.492Z,33.97
2023-04-23T07:15:22.376Z,34.60
2023-04-23T07:18:09.850Z,38.37
2023-04-23T07:20:56.872Z,33.67
2023-04-23T07:23:43.302Z,35.87
2023-04-23T07:26:29.749Z,36.00
2023-04-23T07:29:16.274Z,41.03
2023-04-23T07:32:04.151Z,35.17
2023-04-23T07:34:51.447Z,37.57
2023-04-23T07:37:38.216Z,34.47
2023-04-23T07:40:25.618Z,38.97
2023-04-23T07:43:14.046Z,33.40
2023-04-23T07:46:00.864Z,39.20
2023-04-23T07:48:49.128Z,33.00
2023-04-23T07:51:36.248Z,33.97
2023-04-23T07:54:24.510Z,29.27
2023-04-23T07:57:12.505Z,31.93
2023-04-23T07:59:59.082Z,29.13
2023-04-23T08:02:45.816Z,26.77
2023-04-23T08:05:34.231Z,27.60
2023-04-23T08:08:21.228Z,26.83
2023-04-23T08:11:07.755Z,28.27
2023-04-23T08:13:54.467Z,26.93
2023-04-23T08:16:40.956Z,25.57
2023-04-23T08:19:31.673Z,24.40
2023-04-23T08:22:20.360Z,23.53
2023-04-23T08:25:08.581Z,30.17
2023-04-23T08:27:55.012Z,25.17
2023-04-23T08:30:41.410Z,23.10
2023-04-23T08:33:27.899Z,21.27
2023-04-23T08:36:15.284Z,25.20
2023-04-23T08:39:04.129Z,23.13
2023-04-23T08:41:56.494Z,24.27
2023-04-23T08:44:43.913Z,23.50
2023-04-23T08:47:33.297Z,20.57
2023-04-23T08:50:20.925Z,18.73
2023-04-23T08:53:08.012Z,15.03
2023-04-23T08:55:56.719Z,14.53
2023-04-23T08:58:44.106Z,14.83
2023-04-23T09:01:31.773Z,14.27
2023-04-23T09:04:20.453Z,12.40
2023-04-23T09:07:11.426Z,12.30
2023-04-23T09:09:58.282Z,14.53
2023-04-23T09:12:48.054Z,15.33
2023-04-23T09:15:36.874Z,14.70
2023-04-23T09:18:23.513Z,13.77
2023-04-23T09:21:10.896Z,11.67
2023-04-23T09:23:57.686Z,11.17
2023-04-23T09:26:48.707Z,13.63
2023-04-23T09:29:36.650Z,12.10
2023-04-23T09:32:32.816Z,10.30
2023-04-23T09:35:21.062Z,9.90
2023-04-23T09:38:10.552Z,9.80
2023-04-23T09:40:57.534Z,13.83
2023-04-23T09:43:44.059Z,11.47
2023-04-23T09:46:39.940Z,9.87
2023-04-23T09:49:26.708Z,10.20
2023-04-23T09:52:13.122Z,12.33
2023-04-23T09:54:59.919Z,8.43
2023-04-23T09:57:48.288Z,9.03
2023-04-23T10:00:36.418Z,7.33
2023-04-23T10:03:29.521Z,9.97
2023-04-23T10:06:30.582Z,8.60
2023-04-23T10:09:24.671Z,7.30
2023-04-23T10:12:29.588Z,7.33
2023-04-23T10:15:19.616Z,6.63
2023-04-23T10:18:08.014Z,7.67
2023-04-23T10:20:56.203Z,7.00
2023-04-23T10:23:45.335Z,6.90
2023-04-23T10:26:34.146Z,7.57
2023-04-23T10:29:24.652Z,8.27
2023-04-23T10:32:11.648Z,8.77
2023-04-23T10:34:58.192Z,6.90
2023-04-23T10:37:48.142Z,8.10
2023-04-23T10:40:37.688Z,6.83
2023-04-23T10:43:25.972Z,9.97
2023-04-23T10:46:30.491Z,5.93
2023-04-23T10:49:17.273Z,8.87
2023-04-23T10:52:19.607Z,6.67
2023-04-23T10:55:18.563Z,8.87
2023-04-23T10:58:06.743Z,6.70
2023-04-23T11:00:53.702Z,8.57
2023-04-23T11:03:44.354Z,9.47
2023-04-23T11:06:55.071Z,7.33
2023-04-23T11:09:44.602Z,6.97
2023-04-23T11:12:35.922Z,8.27
2023-04-23T11:15:22.770Z,10.00
2023-04-23T11:18:09.456Z,7.70
2023-04-23T11:20:58.075Z,8.83
2023-04-23T11:23:47.499Z,8.93
2023-04-23T11:26:36.033Z,7.00
2023-04-23T11:29:26.075Z,8.53
2023-04-23T11:32:14.457Z,8.23
2023-04-23T11:35:05.257Z,6.97
2023-04-23T11:37:52.096Z,14.90
2023-04-23T11:40:40.471Z,12.13
2023-04-23T11:43:29.284Z,12.10
2023-04-23T11:46:17.797Z,12.50
2023-04-23T11:49:04.670Z,10.13
2023-04-23T11:51:51.375Z,9.17
2023-04-23T11:54:40.692Z,8.63
2023-04-23T11:57:27.758Z,8.80
2023-04-23T12:00:17.189Z,5.77
2023-04-23T12:03:07.205Z,5.43
2023-04-23T12:05:55.978Z,5.47
2023-04-23T12:08:43.270Z,14.67
2023-04-23T12:11:29.636Z,5.03
2023-04-23T12:14:18.033Z,4.87
2023-04-23T12:17:11.134Z,7.27
2023-04-23T12:19:59.258Z,3.77
2023-04-23T12:22:45.668Z,2.67
2023-04-23T12:25:33.636Z,4.80
2023-04-23T12:28:24.432Z,5.03
2023-04-23T12:31:11.081Z,1.67
2023-04-23T12:34:04.862Z,3.27
2023-04-23T12:36:55.166Z,2.40
2023-04-23T12:39:42.097Z,1.70
2023-04-23T12:42:28.774Z,1.40
2023-04-23T12:45:15.358Z,2.93
2023-04-23T12:48:01.673Z,3.37
2023-04-23T12:50:49.275Z,2.57
2023-04-23T12:53:36.959Z,1.20
2023-04-23T12:56:23.679Z,2.47
2023-04-23T12:59:10.305Z,1.50
2023-04-23T13:01:57.394Z,4.03
2023-04-23T13:04:43.857Z,2.57
2023-04-23T13:07:30.684Z,2.37
2023-04-23T13:10:18.809Z,2.17
2023-04-23T13:13:05.532Z,2.30
2023-04-23T13:15:52.050Z,2.93
2023-04-23T13:18:38.379Z,2.80
2023-04-23T13:21:26.220Z,3.43
2023-04-23T13:24:13.492Z,4.00
2023-04-23T13:27:02.093Z,2.20
2023-04-23T13:29:48.835Z,3.33
2023-04-23T13:32:35.334Z,5.57
2023-04-23T13:35:22.223Z,5.60
2023-04-23T13:38:08.698Z,2.33
2023-04-23T13:40:55.436Z,3.03
2023-04-23T13:43:43.796Z,2.57
2023-04-23T13:46:30.941Z,1.97
2023-04-23T13:49:18.029Z,1.17
2023-04-23T13:52:06.967Z,1.50
2023-04-23T13:54:54.851Z,0.70
2023-04-23T13:57:41.752Z,0.80
2023-04-23T14:00:31.131Z,0.70
2023-04-23T14:03:17.897Z,0.90
2023-04-23T14:06:04.708Z,1.20
2023-04-23T14:08:51.272Z,1.27
2023-04-23T14:11:39.635Z,1.83
2023-04-23T14:14:26.315Z,3.33
2023-04-23T14:17:14.679Z,1.53
2023-04-23T14:20:01.881Z,1.70
2023-04-23T14:22:51.772Z,1.80
2023-04-23T14:25:42.596Z,1.50
2023-04-23T14:28:34.434Z,1.80
2023-04-23T14:31:21.548Z,1.50
2023-04-23T14:34:10.105Z,1.50
2023-04-23T14:36:57.102Z,1.30
2023-04-23T14:39:44.027Z,1.80
2023-04-23T14:42:31.527Z,2.50
2023-04-23T14:45:19.157Z,2.83
2023-04-23T14:48:06.251Z,1.90
2023-04-23T14:50:54.274Z,3.03
2023-04-23T14:53:41.073Z,2.57
2023-04-23T14:56:27.840Z,1.57
2023-04-23T14:59:15.155Z,1.23
2023-04-23T15:02:02.877Z,1.50
2023-04-23T15:04:51.412Z,3.53
2023-04-23T15:07:40.447Z,1.30
2023-04-23T15:10:27.610Z,1.97
2023-04-23T15:13:38.326Z,3.03
2023-04-23T15:19:21.116Z,1.87
2023-04-23T15:22:07.747Z,2.80
2023-04-23T15:24:55.435Z,1.33
2023-04-23T15:27:42.016Z,1.30
2023-04-23T15:30:29.628Z,1.50
2023-04-23T15:33:17.674Z,2.23
2023-04-23T15:36:05.171Z,1.37
2023-04-23T15:38:51.900Z,1.60
2023-04-23T15:41:41.362Z,1.40
2023-04-23T15:44:28.992Z,3.17
2023-04-23T15:47:15.414Z,2.03
2023-04-23T15:50:02.434Z,6.30
2023-04-23T15:52:50.433Z,1.60
2023-04-23T15:55:38.943Z,1.77
2023-04-23T15:58:27.025Z,4.63
2023-04-23T16:01:13.786Z,1.67
2023-04-23T16:06:50.313Z,1.87
2023-04-23T16:09:36.755Z,2.70
2023-04-23T16:12:23.262Z,2.30
2023-04-23T16:18:03.443Z,7.27
2023-04-23T16:20:50.206Z,4.10
2023-04-23T16:23:36.569Z,2.83
2023-04-23T16:26:23.149Z,2.10
2023-04-23T16:29:21.449Z,2.60
2023-04-23T16:32:10.425Z,1.23
2023-04-23T16:34:57.123Z,4.83
2023-04-23T16:37:43.588Z,4.33
2023-04-23T16:40:29.973Z,5.97
2023-04-23T16:43:16.469Z,3.93
2023-04-23T16:46:02.822Z,4.03
2023-04-23T16:48:50.911Z,5.43
2023-04-23T16:51:37.357Z,5.60
2023-04-23T16:54:24.210Z,6.83
2023-04-23T16:57:11.522Z,3.80
2023-04-23T16:59:58.203Z,5.27
2023-04-23T17:02:44.855Z,6.53
2023-04-23T17:05:35.607Z,12.13
2023-04-23T17:08:22.385Z,4.63
2023-04-23T17:11:09.023Z,4.03
2023-04-23T17:13:56.504Z,5.93
2023-04-23T17:16:44.528Z,5.33
2023-04-23T17:19:31.170Z,5.07
2023-04-23T17:22:19.158Z,4.33
2023-04-23T17:25:07.140Z,5.23
2023-04-23T17:27:54.565Z,2.90
2023-04-23T17:30:40.974Z,5.90
2023-04-23T17:33:27.796Z,4.40
2023-04-23T17:36:14.225Z,5.27
2023-04-23T17:39:02.404Z,4.20
2023-04-23T17:41:49.199Z,5.83
2023-04-23T17:44:36.024Z,3.63
2023-04-23T17:47:22.440Z,3.33
2023-04-23T17:50:11.655Z,5.80
2023-04-23T17:53:02.065Z,5.67
2023-04-23T17:55:49.944Z,2.83
2023-04-23T17:58:38.199Z,2.80
2023-04-23T18:01:25.785Z,2.30
2023-04-23T18:04:13.441Z,4.27
2023-04-23T18:07:01.215Z,2.53
2023-04-23T18:09:47.703Z,3.27
2023-04-23T18:12:36.176Z,3.20
2023-04-23T18:15:22.955Z,2.50
2023-04-23T18:18:09.875Z,4.00
2023-04-23T18:20:57.053Z,2.50
2023-04-23T18:23:43.558Z,3.70
2023-04-23T18:26:29.891Z,2.50
2023-04-23T18:29:17.704Z,3.73
2023-04-23T18:32:04.595Z,2.33
2023-04-23T18:34:51.413Z,4.80
2023-04-23T18:37:42.862Z,2.63
2023-04-23T18:40:29.660Z,3.20
2023-04-23T18:43:16.462Z,3.00
2023-04-23T18:46:04.671Z,4.30
2023-04-23T18:48:59.952Z,4.03
2023-04-23T18:51:51.821Z,2.87
2023-04-23T18:54:38.848Z,3.97
2023-04-23T18:57:26.313Z,2.90
2023-04-23T19:00:14.443Z,3.50
2023-04-23T19:03:06.651Z,4.23
2023-04-23T19:05:55.988Z,3.10
2023-04-23T19:08:42.558Z,3.03
2023-04-23T19:11:34.114Z,5.27
2023-04-23T19:14:20.720Z,3.20
2023-04-23T19:17:07.289Z,4.33
2023-04-23T19:19:55.076Z,3.47
2023-04-23T19:22:42.266Z,4.27
2023-04-23T19:25:28.829Z,7.13
2023-04-23T19:28:15.266Z,4.20
2023-04-23T19:31:01.976Z,3.43
2023-04-23T19:33:48.421Z,2.73
2023-04-23T19:36:36.128Z,2.40
2023-04-23T19:39:23.621Z,3.47
2023-04-23T19:42:10.790Z,3.23
2023-04-23T19:44:57.401Z,3.03
2023-04-23T19:47:43.960Z,3.23
2023-04-23T19:50:30.569Z,4.23
2023-04-23T19:53:18.628Z,3.70
2023-04-23T19:56:08.415Z,4.00
2023-04-23T19:58:54.995Z,3.33
2023-04-23T20:01:41.490Z,3.10
2023-04-23T20:04:27.890Z,3.80
2023-04-23T20:07:14.697Z,4.30
2023-04-23T20:10:02.653Z,4.00
2023-04-23T20:12:49.387Z,7.63
2023-04-23T20:15:36.814Z,4.27
2023-04-23T20:18:25.604Z,4.30
2023-04-23T20:21:12.396Z,6.70
2023-04-23T20:23:58.906Z,1.57
2023-04-23T20:26:47.114Z,2.30
2023-04-23T20:29:33.842Z,7.27
2023-04-23T20:32:20.114Z,2.50
2023-04-23T20:35:07.423Z,1.20
2023-04-23T20:37:55.495Z,0.90
2023-04-23T20:40:42.285Z,0.80
2023-04-23T20:43:30.286Z,1.77
2023-04-23T20:46:16.740Z,1.00
2023-04-23T20:49:04.210Z,0.90
2023-04-23T20:51:50.717Z,2.33
2023-04-23T20:54:37.156Z,1.47
2023-04-23T20:57:23.665Z,3.97
2023-04-23T21:00:12.837Z,0.97
2023-04-23T21:02:59.528Z,1.17
2023-04-23T21:05:46.168Z,1.33
2023-04-23T21:08:32.781Z,2.07
2023-04-23T21:11:21.241Z,1.90
2023-04-23T21:14:08.946Z,2.33
2023-04-23T21:16:56.938Z,2.60
2023-04-23T21:19:43.656Z,1.50
2023-04-23T21:22:31.600Z,2.87
2023-04-23T21:25:18.349Z,0.90
2023-04-23T21:28:05.414Z,1.10
2023-04-23T21:30:53.290Z,1.07
2023-04-23T21:33:41.178Z,1.20
2023-04-23T21:36:28.447Z,0.90
2023-04-23T21:39:15.195Z,1.13
2023-04-23T21:42:01.928Z,1.40
2023-04-23T21:44:48.317Z,1.70
2023-04-23T21:47:34.747Z,1.30
2023-04-23T21:50:23.272Z,1.93
2023-04-23T21:53:09.842Z,1.10
2023-04-23T21:55:56.348Z,2.03
2023-04-23T21:58:42.666Z,1.63
2023-04-23T22:01:29.480Z,2.23
2023-04-23T22:04:17.819Z,2.30
2023-04-23T22:07:08.660Z,1.40
2023-04-23T22:09:57.140Z,1.53
2023-04-23T22:12:44.612Z,2.87
2023-04-23T22:15:31.469Z,1.40
2023-04-23T22:18:17.916Z,1.33
2023-04-23T22:21:04.445Z,1.43
2023-04-23T22:23:52.244Z,3.13
2023-04-23T22:26:39.046Z,1.87
2023-04-23T22:29:25.444Z,1.07
2023-04-23T22:32:12.041Z,1.10
2023-04-23T22:34:59.414Z,1.10
2023-04-23T22:37:46.366Z,1.33
2023-04-23T22:40:34.458Z,1.27
2023-04-23T22:43:21.119Z,1.23
2023-04-23T22:46:07.675Z,2.80
2023-04-23T22:48:54.774Z,1.90
2023-04-23T22:51:42.039Z,0.93
2023-04-23T22:54:28.373Z,1.23
2023-04-23T22:57:16.009Z,1.10
2023-04-23T23:00:05.126Z,1.43
2023-04-23T23:02:52.686Z,1.10
2023-04-23T23:05:39.398Z,1.07
2023-04-23T23:08:25.842Z,2.50
2023-04-23T23:11:12.290Z,1.20
2023-04-23T23:14:00.167Z,1.30
2023-04-23T23:16:46.882Z,0.90
2023-04-23T23:19:33.290Z,0.80
2023-04-23T23:22:19.656Z,0.90
2023-04-23T23:25:07.852Z,1.00
2023-04-23T23:27:54.870Z,0.80
2023-04-23T23:30:42.876Z,1.13
2023-04-23T23:33:29.969Z,1.57
2023-04-23T23:36:16.474Z,1.43
2023-04-23T23:39:02.781Z,1.27
2023-04-23T23:41:49.234Z,1.43
2023-04-23T23:44:36.310Z,0.80
2023-04-23T23:47:24.415Z,0.90
2023-04-23T23:50:11.742Z,0.53
2023-04-23T23:52:58.117Z,0.73
2023-04-23T23:55:44.544Z,0.90
2023-04-23T23:58:31.166Z,0.90
